sensor_id;sensor_type;location;lat;lon;timestamp;pressure;altitude;pressure_sealevel;temperature;humidity
1207;BME280;593;53.184;8.216;2023-12-28T00:01:46;100197.97;;;9.28;100.00
1207;BME280;593;53.184;8.216;2023-12-28T00:04:12;100205.03;;;9.29;100.00
1207;BME280;593;53.184;8.216;2023-12-28T00:06:37;100191.97;;;9.31;100.00
1207;BME280;593;53.184;8.216;2023-12-28T00:09:03;100191.47;;;9.29;100.00
1207;BME280;593;53.184;8.216;2023-12-28T00:11:29;100196.59;;;9.31;100.00
1207;BME280;593;53.184;8.216;2023-12-28T00:13:54;100195.50;;;9.32;100.00
1207;BME280;593;53.184;8.216;2023-12-28T00:16:20;100191.72;;;9.28;100.00
1207;BME280;593;53.184;8.216;2023-12-28T00:18:45;100194.41;;;9.33;100.00
1207;BME280;593;53.184;8.216;2023-12-28T00:21:11;100201.44;;;9.34;100.00
1207;BME280;593;53.184;8.216;2023-12-28T00:23:36;100196.03;;;9.34;100.00
1207;BME280;593;53.184;8.216;2023-12-28T00:26:01;100193.00;;;9.35;100.00
1207;BME280;593;53.184;8.216;2023-12-28T00:28:28;100193.31;;;9.34;100.00
1207;BME280;593;53.184;8.216;2023-12-28T00:30:53;100201.66;;;9.37;100.00
1207;BME280;593;53.184;8.216;2023-12-28T00:33:18;100199.78;;;9.38;100.00
1207;BME280;593;53.184;8.216;2023-12-28T00:35:44;100209.53;;;9.39;100.00
1207;BME280;593;53.184;8.216;2023-12-28T00:38:09;100196.25;;;9.37;100.00
1207;BME280;593;53.184;8.216;2023-12-28T00:40:35;100202.75;;;9.41;100.00
1207;BME280;593;53.184;8.216;2023-12-28T00:43:00;100207.88;;;9.43;100.00
1207;BME280;593;53.184;8.216;2023-12-28T00:45:25;100215.19;;;9.42;100.00
1207;BME280;593;53.184;8.216;2023-12-28T00:47:51;100212.47;;;9.42;100.00
1207;BME280;593;53.184;8.216;2023-12-28T00:50:17;100218.47;;;9.44;100.00
1207;BME280;593;53.184;8.216;2023-12-28T00:52:42;100223.63;;;9.41;100.00
1207;BME280;593;53.184;8.216;2023-12-28T00:55:08;100233.94;;;9.44;100.00
1207;BME280;593;53.184;8.216;2023-12-28T00:57:34;100239.34;;;9.44;100.00
1207;BME280;593;53.184;8.216;2023-12-28T00:59:59;100255.34;;;9.45;100.00
1207;BME280;593;53.184;8.216;2023-12-28T01:02:25;100248.53;;;9.48;100.00
1207;BME280;593;53.184;8.216;2023-12-28T01:04:50;100243.09;;;9.48;100.00
1207;BME280;593;53.184;8.216;2023-12-28T01:07:16;100245.81;;;9.48;100.00
1207;BME280;593;53.184;8.216;2023-12-28T01:09:41;100249.34;;;9.48;100.00
1207;BME280;593;53.184;8.216;2023-12-28T01:12:06;100253.97;;;9.48;100.00
1207;BME280;593;53.184;8.216;2023-12-28T01:14:32;100259.09;;;9.49;100.00
1207;BME280;593;53.184;8.216;2023-12-28T01:16:58;100264.25;;;9.51;100.00
1207;BME280;593;53.184;8.216;2023-12-28T01:19:24;100271.84;;;9.54;100.00
1207;BME280;593;53.184;8.216;2023-12-28T01:21:49;100271.25;;;9.57;100.00
1207;BME280;593;53.184;8.216;2023-12-28T01:24:15;100280.22;;;9.57;100.00
1207;BME280;593;53.184;8.216;2023-12-28T01:26:41;100285.94;;;9.56;100.00
1207;BME280;593;53.184;8.216;2023-12-28T01:29:06;100282.91;;;9.57;100.00
1207;BME280;593;53.184;8.216;2023-12-28T01:31:32;100291.59;;;9.59;100.00
1207;BME280;593;53.184;8.216;2023-12-28T01:33:57;100287.53;;;9.57;100.00
1207;BME280;593;53.184;8.216;2023-12-28T01:36:22;100278.81;;;9.60;100.00
1207;BME280;593;53.184;8.216;2023-12-28T01:38:48;100285.38;;;9.59;100.00
1207;BME280;593;53.184;8.216;2023-12-28T01:41:14;100291.38;;;9.56;100.00
1207;BME280;593;53.184;8.216;2023-12-28T01:43:41;100284.56;;;9.58;100.00
1207;BME280;593;53.184;8.216;2023-12-28T01:46:09;100274.22;;;9.60;100.00
1207;BME280;593;53.184;8.216;2023-12-28T01:48:36;100286.72;;;9.61;100.00
1207;BME280;593;53.184;8.216;2023-12-28T01:51:02;100284.78;;;9.62;100.00
1207;BME280;593;53.184;8.216;2023-12-28T01:53:28;100286.72;;;9.61;100.00
1207;BME280;593;53.184;8.216;2023-12-28T01:55:54;100281.53;;;9.60;100.00
1207;BME280;593;53.184;8.216;2023-12-28T01:58:20;100275.03;;;9.61;100.00
1207;BME280;593;53.184;8.216;2023-12-28T02:00:46;100287.50;;;9.62;100.00
1207;BME280;593;53.184;8.216;2023-12-28T02:03:12;100284.78;;;9.62;100.00
1207;BME280;593;53.184;8.216;2023-12-28T02:05:38;100283.69;;;9.63;100.00
1207;BME280;593;53.184;8.216;2023-12-28T02:08:06;100275.53;;;9.63;100.00
1207;BME280;593;53.184;8.216;2023-12-28T02:10:32;100281.78;;;9.63;100.00
1207;BME280;593;53.184;8.216;2023-12-28T02:12:57;100284.00;;;9.61;100.00
1207;BME280;593;53.184;8.216;2023-12-28T02:15:23;100278.25;;;9.63;100.00
1207;BME280;593;53.184;8.216;2023-12-28T02:18:00;100280.69;;;9.64;100.00
1207;BME280;593;53.184;8.216;2023-12-28T02:20:29;100290.22;;;9.62;100.00
1207;BME280;593;53.184;8.216;2023-12-28T02:22:55;100284.50;;;9.63;100.00
1207;BME280;593;53.184;8.216;2023-12-28T02:25:21;100283.69;;;9.63;100.00
1207;BME280;593;53.184;8.216;2023-12-28T02:27:49;100294.56;;;9.63;100.00
1207;BME280;593;53.184;8.216;2023-12-28T02:30:20;100296.19;;;9.64;100.00
1207;BME280;593;53.184;8.216;2023-12-28T02:33:19;100286.13;;;9.64;100.00
1207;BME280;593;53.184;8.216;2023-12-28T02:35:55;100286.94;;;9.65;100.00
1207;BME280;593;53.184;8.216;2023-12-28T02:38:24;100293.47;;;9.64;100.00
1207;BME280;593;53.184;8.216;2023-12-28T02:40:49;100281.78;;;9.63;100.00
1207;BME280;593;53.184;8.216;2023-12-28T02:43:15;100285.91;;;9.61;100.00
1207;BME280;593;53.184;8.216;2023-12-28T02:45:41;100276.63;;;9.62;100.00
1207;BME280;593;53.184;8.216;2023-12-28T02:48:09;100292.34;;;9.65;100.00
1207;BME280;593;53.184;8.216;2023-12-28T02:50:35;100283.69;;;9.63;100.00
1207;BME280;593;53.184;8.216;2023-12-28T02:53:01;100282.88;;;9.62;100.00
1207;BME280;593;53.184;8.216;2023-12-28T02:55:27;100276.38;;;9.63;100.00
1207;BME280;593;53.184;8.216;2023-12-28T02:57:55;100273.34;;;9.65;100.00
1207;BME280;593;53.184;8.216;2023-12-28T03:00:21;100273.66;;;9.63;100.00
1207;BME280;593;53.184;8.216;2023-12-28T03:02:47;100268.44;;;9.67;100.00
1207;BME280;593;53.184;8.216;2023-12-28T03:05:12;100273.88;;;9.67;100.00
1207;BME280;593;53.184;8.216;2023-12-28T03:07:38;100264.63;;;9.68;100.00
1207;BME280;593;53.184;8.216;2023-12-28T03:10:05;100270.38;;;9.66;100.00
1207;BME280;593;53.184;8.216;2023-12-28T03:12:31;100266.03;;;9.65;100.00
1207;BME280;593;53.184;8.216;2023-12-28T03:14:56;100255.69;;;9.67;100.00
1207;BME280;593;53.184;8.216;2023-12-28T03:17:22;100258.69;;;9.66;100.00
1207;BME280;593;53.184;8.216;2023-12-28T03:19:48;100263.31;;;9.65;100.00
1207;BME280;593;53.184;8.216;2023-12-28T03:22:13;100242.72;;;9.59;100.00
1207;BME280;593;53.184;8.216;2023-12-28T03:24:39;100257.88;;;9.65;100.00
1207;BME280;593;53.184;8.216;2023-12-28T03:27:05;100250.53;;;9.66;100.00
1207;BME280;593;53.184;8.216;2023-12-28T03:29:30;100254.66;;;9.63;100.00
1207;BME280;593;53.184;8.216;2023-12-28T03:31:56;100264.38;;;9.64;100.00
1207;BME280;593;53.184;8.216;2023-12-28T03:34:22;100256.53;;;9.63;100.00
1207;BME280;593;53.184;8.216;2023-12-28T03:36:49;100253.81;;;9.63;100.00
1207;BME280;593;53.184;8.216;2023-12-28T03:39:14;100252.19;;;9.62;100.00
1207;BME280;593;53.184;8.216;2023-12-28T03:41:40;100248.91;;;9.65;100.00
1207;BME280;593;53.184;8.216;2023-12-28T03:44:05;100244.59;;;9.64;100.00
1207;BME280;593;53.184;8.216;2023-12-28T03:46:30;100243.47;;;9.65;100.00
1207;BME280;593;53.184;8.216;2023-12-28T03:48:59;100258.69;;;9.66;100.00
1207;BME280;593;53.184;8.216;2023-12-28T03:51:24;100257.56;;;9.67;100.00
1207;BME280;593;53.184;8.216;2023-12-28T03:53:50;100262.50;;;9.65;100.00
1207;BME280;593;53.184;8.216;2023-12-28T03:58:45;100263.59;;;9.64;100.00
1207;BME280;593;53.184;8.216;2023-12-28T04:01:11;100257.88;;;9.65;100.00
1207;BME280;593;53.184;8.216;2023-12-28T04:03:36;100261.69;;;9.64;100.00
1207;BME280;593;53.184;8.216;2023-12-28T04:06:02;100255.47;;;9.64;100.00
1207;BME280;593;53.184;8.216;2023-12-28T04:08:27;100274.69;;;9.67;100.00
1207;BME280;593;53.184;8.216;2023-12-28T04:10:52;100258.13;;;9.69;100.00
1207;BME280;593;53.184;8.216;2023-12-28T04:13:18;100262.78;;;9.63;100.00
1207;BME280;593;53.184;8.216;2023-12-28T04:15:43;100248.91;;;9.65;100.00
1207;BME280;593;53.184;8.216;2023-12-28T04:18:09;100251.06;;;9.68;100.00
1207;BME280;593;53.184;8.216;2023-12-28T04:20:34;100246.72;;;9.67;100.00
1207;BME280;593;53.184;8.216;2023-12-28T04:22:59;100249.22;;;9.63;100.00
1207;BME280;593;53.184;8.216;2023-12-28T04:25:25;100238.56;;;9.67;100.00
1207;BME280;593;53.184;8.216;2023-12-28T04:27:50;100242.91;;;9.68;100.00
1207;BME280;593;53.184;8.216;2023-12-28T04:30:16;100247.25;;;9.69;100.00
1207;BME280;593;53.184;8.216;2023-12-28T04:32:41;100239.63;;;9.71;100.00
1207;BME280;593;53.184;8.216;2023-12-28T04:35:06;100242.88;;;9.73;100.00
1207;BME280;593;53.184;8.216;2023-12-28T04:37:32;100227.97;;;9.71;100.00
1207;BME280;593;53.184;8.216;2023-12-28T04:39:58;100225.25;;;9.71;100.00
1207;BME280;593;53.184;8.216;2023-12-28T04:42:23;100241.78;;;9.74;100.00
1207;BME280;593;53.184;8.216;2023-12-28T04:44:49;100229.00;;;9.75;100.00
1207;BME280;593;53.184;8.216;2023-12-28T04:47:14;100217.84;;;9.76;100.00
1207;BME280;593;53.184;8.216;2023-12-28T04:49:40;100218.94;;;9.75;100.00
1207;BME280;593;53.184;8.216;2023-12-28T04:52:05;100208.06;;;9.75;100.00
1207;BME280;593;53.184;8.216;2023-12-28T04:54:31;100195.31;;;9.76;100.00
1207;BME280;593;53.184;8.216;2023-12-28T04:56:58;100194.22;;;9.77;100.00
1207;BME280;593;53.184;8.216;2023-12-28T04:59:23;100199.41;;;9.73;100.00
1207;BME280;593;53.184;8.216;2023-12-28T05:01:48;100212.19;;;9.73;100.00
1207;BME280;593;53.184;8.216;2023-12-28T05:04:14;100206.75;;;9.73;100.00
1207;BME280;593;53.184;8.216;2023-12-28T05:06:39;100216.53;;;9.74;100.00
1207;BME280;593;53.184;8.216;2023-12-28T05:09:04;100209.72;;;9.76;100.00
1207;BME280;593;53.184;8.216;2023-12-28T05:11:30;100215.41;;;9.75;100.00
1207;BME280;593;53.184;8.216;2023-12-28T05:13:56;100209.72;;;9.76;100.00
1207;BME280;593;53.184;8.216;2023-12-28T05:16:22;100201.84;;;9.75;100.00
1207;BME280;593;53.184;8.216;2023-12-28T05:18:47;100212.13;;;9.78;100.00
1207;BME280;593;53.184;8.216;2023-12-28T05:21:13;100214.56;;;9.79;100.00
1207;BME280;593;53.184;8.216;2023-12-28T05:23:39;100212.63;;;9.80;100.00
1207;BME280;593;53.184;8.216;2023-12-28T05:26:04;100213.47;;;9.80;100.00
1207;BME280;593;53.184;8.216;2023-12-28T05:28:33;100212.38;;;9.81;100.00
1207;BME280;593;53.184;8.216;2023-12-28T05:30:58;100222.72;;;9.79;100.00
1207;BME280;593;53.184;8.216;2023-12-28T05:33:25;100209.34;;;9.83;100.00
1207;BME280;593;53.184;8.216;2023-12-28T05:35:50;100212.38;;;9.81;100.00
1207;BME280;593;53.184;8.216;2023-12-28T05:38:15;100217.22;;;9.84;100.00
1207;BME280;593;53.184;8.216;2023-12-28T05:40:41;100218.03;;;9.85;100.00
1207;BME280;593;53.184;8.216;2023-12-28T05:43:06;100220.47;;;9.86;100.00
1207;BME280;593;53.184;8.216;2023-12-28T05:45:32;100222.38;;;9.86;100.00
1207;BME280;593;53.184;8.216;2023-12-28T05:47:57;100232.09;;;9.92;100.00
1207;BME280;593;53.184;8.216;2023-12-28T05:50:22;100239.13;;;9.93;100.00
1207;BME280;593;53.184;8.216;2023-12-28T05:52:48;100225.28;;;9.94;100.00
1207;BME280;593;53.184;8.216;2023-12-28T05:55:13;100215.50;;;9.93;100.00
1207;BME280;593;53.184;8.216;2023-12-28T05:57:42;100229.59;;;9.95;100.00
1207;BME280;593;53.184;8.216;2023-12-28T06:00:08;100234.75;;;9.97;100.00
1207;BME280;593;53.184;8.216;2023-12-28T06:02:35;100229.31;;;9.97;100.00
1207;BME280;593;53.184;8.216;2023-12-28T06:05:00;100231.97;;;10.02;100.00
1207;BME280;593;53.184;8.216;2023-12-28T06:07:26;100251.78;;;10.02;100.00
1207;BME280;593;53.184;8.216;2023-12-28T06:09:51;100246.34;;;10.02;100.00
1207;BME280;593;53.184;8.216;2023-12-28T06:12:17;100246.28;;;10.07;100.00
1207;BME280;593;53.184;8.216;2023-12-28T06:14:45;100237.88;;;10.09;100.00
1207;BME280;593;53.184;8.216;2023-12-28T06:17:10;100241.66;;;10.08;100.00
1207;BME280;593;53.184;8.216;2023-12-28T06:19:36;100246.25;;;10.12;100.00
1207;BME280;593;53.184;8.216;2023-12-28T06:22:01;100247.91;;;10.13;100.00
1207;BME280;593;53.184;8.216;2023-12-28T06:24:27;100236.72;;;10.15;100.00
1207;BME280;593;53.184;8.216;2023-12-28T06:26:52;100241.06;;;10.16;100.00
1207;BME280;593;53.184;8.216;2023-12-28T06:29:18;100231.84;;;10.17;100.00
1207;BME280;593;53.184;8.216;2023-12-28T06:31:43;100244.03;;;10.19;100.00
1207;BME280;593;53.184;8.216;2023-12-28T06:34:09;100258.94;;;10.22;100.00
1207;BME280;593;53.184;8.216;2023-12-28T06:36:34;100252.13;;;10.24;100.00
1207;BME280;593;53.184;8.216;2023-12-28T06:39:02;100239.03;;;10.26;100.00
1207;BME280;593;53.184;8.216;2023-12-28T06:41:28;100253.44;;;10.27;100.00
1207;BME280;593;53.184;8.216;2023-12-28T06:43:54;100268.63;;;10.28;100.00
1207;BME280;593;53.184;8.216;2023-12-28T06:46:19;100259.66;;;10.27;100.00
1207;BME280;593;53.184;8.216;2023-12-28T06:48:45;100258.00;;;10.32;100.00
1207;BME280;593;53.184;8.216;2023-12-28T06:51:21;100257.72;;;10.33;100.00
1207;BME280;593;53.184;8.216;2023-12-28T06:53:47;100259.59;;;10.32;100.00
1207;BME280;593;53.184;8.216;2023-12-28T06:56:14;100272.13;;;10.34;100.00
1207;BME280;593;53.184;8.216;2023-12-28T06:58:39;100256.91;;;10.32;100.00
1207;BME280;593;53.184;8.216;2023-12-28T07:01:05;100248.69;;;10.38;100.00
1207;BME280;593;53.184;8.216;2023-12-28T07:03:32;100251.13;;;10.39;100.00
1207;BME280;593;53.184;8.216;2023-12-28T07:06:01;100249.78;;;10.37;100.00
1207;BME280;593;53.184;8.216;2023-12-28T07:08:28;100254.13;;;10.38;100.00
1207;BME280;593;53.184;8.216;2023-12-28T07:10:54;100248.91;;;10.41;100.00
1207;BME280;593;53.184;8.216;2023-12-28T07:13:19;100238.84;;;10.42;100.00
1207;BME280;593;53.184;8.216;2023-12-28T07:15:45;100250.25;;;10.44;100.00
1207;BME280;593;53.184;8.216;2023-12-28T07:18:13;100243.69;;;10.45;100.00
1207;BME280;593;53.184;8.216;2023-12-28T07:20:39;100249.38;;;10.48;100.00
1207;BME280;593;53.184;8.216;2023-12-28T07:23:04;100252.91;;;10.49;100.00
1207;BME280;593;53.184;8.216;2023-12-28T07:25:29;100255.09;;;10.47;100.00
1207;BME280;593;53.184;8.216;2023-12-28T07:27:55;100250.19;;;10.49;100.00
1207;BME280;593;53.184;8.216;2023-12-28T07:30:20;100251.78;;;10.50;100.00
1207;BME280;593;53.184;8.216;2023-12-28T07:32:46;100241.72;;;10.50;100.00
1207;BME280;593;53.184;8.216;2023-12-28T07:35:11;100240.84;;;10.55;100.00
1207;BME280;593;53.184;8.216;2023-12-28T07:37:37;100245.19;;;10.56;100.00
1207;BME280;593;53.184;8.216;2023-12-28T07:40:03;100240.84;;;10.55;100.00
1207;BME280;593;53.184;8.216;2023-12-28T07:42:29;100220.72;;;10.56;100.00
1207;BME280;593;53.184;8.216;2023-12-28T07:44:55;100224.75;;;10.58;100.00
1207;BME280;593;53.184;8.216;2023-12-28T07:47:20;100241.44;;;10.52;100.00
1207;BME280;593;53.184;8.216;2023-12-28T07:49:46;100241.88;;;10.59;100.00
1207;BME280;593;53.184;8.216;2023-12-28T07:52:11;100246.28;;;10.55;100.00
1207;BME280;593;53.184;8.216;2023-12-28T07:54:37;100242.97;;;10.58;100.00
1207;BME280;593;53.184;8.216;2023-12-28T07:57:02;100263.84;;;10.62;100.00
1207;BME280;593;53.184;8.216;2023-12-28T07:59:28;100263.84;;;10.62;100.00
1207;BME280;593;53.184;8.216;2023-12-28T08:01:53;100250.25;;;10.62;100.00
1207;BME280;593;53.184;8.216;2023-12-28T08:04:22;100258.13;;;10.64;100.00
1207;BME280;593;53.184;8.216;2023-12-28T08:06:48;100259.72;;;10.65;100.00
1207;BME280;593;53.184;8.216;2023-12-28T08:09:14;100268.44;;;10.67;100.00
1207;BME280;593;53.184;8.216;2023-12-28T08:11:39;100258.34;;;10.67;100.00
1207;BME280;593;53.184;8.216;2023-12-28T08:14:05;100245.28;;;10.69;100.00
1207;BME280;593;53.184;8.216;2023-12-28T08:16:30;100242.25;;;10.71;100.00
1207;BME280;593;53.184;8.216;2023-12-28T08:18:56;100228.72;;;10.66;100.00
1207;BME280;593;53.184;8.216;2023-12-28T08:21:21;100253.72;;;10.68;100.00
1207;BME280;593;53.184;8.216;2023-12-28T08:23:47;100252.63;;;10.69;100.00
1207;BME280;593;53.184;8.216;2023-12-28T08:26:12;100256.16;;;10.69;100.00
1207;BME280;593;53.184;8.216;2023-12-28T08:28:41;100247.38;;;10.72;100.00
1207;BME280;593;53.184;8.216;2023-12-28T08:31:07;100258.34;;;10.67;100.00
1207;BME280;593;53.184;8.216;2023-12-28T08:33:36;100269.47;;;10.71;100.00
1207;BME280;593;53.184;8.216;2023-12-28T08:36:04;100265.03;;;10.75;100.00
1207;BME280;593;53.184;8.216;2023-12-28T08:38:30;100264.75;;;10.76;100.00
1207;BME280;593;53.184;8.216;2023-12-28T08:40:56;100280.78;;;10.78;100.00
1207;BME280;593;53.184;8.216;2023-12-28T08:43:21;100272.34;;;10.79;100.00
1207;BME280;593;53.184;8.216;2023-12-28T08:45:47;100279.09;;;10.82;100.00
1207;BME280;593;53.184;8.216;2023-12-28T08:48:15;100285.88;;;10.84;100.00
1207;BME280;593;53.184;8.216;2023-12-28T08:50:41;100274.69;;;10.86;100.00
1207;BME280;593;53.184;8.216;2023-12-28T08:53:06;100287.97;;;10.87;100.00
1207;BME280;593;53.184;8.216;2023-12-28T08:55:32;100287.72;;;10.89;100.00
1207;BME280;593;53.184;8.216;2023-12-28T08:57:58;100291.25;;;10.89;100.00
1207;BME280;593;53.184;8.216;2023-12-28T09:00:24;100289.31;;;10.90;100.00
1207;BME280;593;53.184;8.216;2023-12-28T09:02:49;100300.19;;;10.90;100.00
1207;BME280;593;53.184;8.216;2023-12-28T09:05:15;100296.38;;;10.91;100.00
1207;BME280;593;53.184;8.216;2023-12-28T09:07:40;100301.81;;;10.91;100.00
1207;BME280;593;53.184;8.216;2023-12-28T09:10:11;100307.50;;;10.94;100.00
1207;BME280;593;53.184;8.216;2023-12-28T09:12:39;100303.66;;;10.95;100.00
1207;BME280;593;53.184;8.216;2023-12-28T09:15:05;100290.63;;;10.92;100.00
1207;BME280;593;53.184;8.216;2023-12-28T09:17:31;100303.06;;;10.99;100.00
1207;BME280;593;53.184;8.216;2023-12-28T09:19:56;100281.00;;;11.00;100.00
1207;BME280;593;53.184;8.216;2023-12-28T09:22:23;100283.97;;;11.04;100.00
1207;BME280;593;53.184;8.216;2023-12-28T09:24:49;100287.78;;;11.03;100.00
1207;BME280;593;53.184;8.216;2023-12-28T09:27:14;100288.00;;;11.06;100.00
1207;BME280;593;53.184;8.216;2023-12-28T09:29:39;100291.03;;;11.05;100.00
1207;BME280;593;53.184;8.216;2023-12-28T09:32:05;100295.72;;;10.99;100.00
1207;BME280;593;53.184;8.216;2023-12-28T09:34:31;100305.16;;;11.07;100.00
1207;BME280;593;53.184;8.216;2023-12-28T09:36:56;100314.13;;;11.07;100.00
1207;BME280;593;53.184;8.216;2023-12-28T09:39:21;100318.97;;;11.10;100.00
1207;BME280;593;53.184;8.216;2023-12-28T09:41:55;100311.09;;;11.09;100.00
1207;BME280;593;53.184;8.216;2023-12-28T09:44:24;100318.38;;;11.13;100.00
1207;BME280;593;53.184;8.216;2023-12-28T09:46:50;100321.59;;;11.15;100.00
1207;BME280;593;53.184;8.216;2023-12-28T09:49:19;100324.94;;;11.12;100.00
1207;BME280;593;53.184;8.216;2023-12-28T09:51:47;100318.88;;;11.15;100.00
1207;BME280;593;53.184;8.216;2023-12-28T09:54:12;100319.69;;;11.16;100.00
1207;BME280;593;53.184;8.216;2023-12-28T09:56:38;100310.00;;;11.10;100.00
1207;BME280;593;53.184;8.216;2023-12-28T09:59:05;100311.41;;;11.07;100.00
1207;BME280;593;53.184;8.216;2023-12-28T10:01:31;100309.53;;;11.03;100.00
1207;BME280;593;53.184;8.216;2023-12-28T10:03:57;100329.69;;;11.20;100.00
1207;BME280;593;53.184;8.216;2023-12-28T10:06:23;100316.97;;;11.16;100.00
1207;BME280;593;53.184;8.216;2023-12-28T10:08:49;100338.69;;;11.21;100.00
1207;BME280;593;53.184;8.216;2023-12-28T10:11:15;100348.47;;;11.22;100.00
1207;BME280;593;53.184;8.216;2023-12-28T10:13:41;100341.41;;;11.21;100.00
1207;BME280;593;53.184;8.216;2023-12-28T10:16:08;100319.50;;;11.12;100.00
1207;BME280;593;53.184;8.216;2023-12-28T10:18:34;100335.38;;;11.24;100.00
1207;BME280;593;53.184;8.216;2023-12-28T10:21:00;100311.25;;;11.17;100.00
1207;BME280;593;53.184;8.216;2023-12-28T10:23:25;100332.84;;;11.27;100.00
1207;BME280;593;53.184;8.216;2023-12-28T10:25:51;100314.75;;;11.18;100.00
1207;BME280;593;53.184;8.216;2023-12-28T10:28:18;100336.13;;;11.29;100.00
1207;BME280;593;53.184;8.216;2023-12-28T10:30:45;100328.53;;;11.26;100.00
1207;BME280;593;53.184;8.216;2023-12-28T10:33:10;100326.81;;;11.30;100.00
1207;BME280;593;53.184;8.216;2023-12-28T10:35:36;100336.63;;;11.31;100.00
1207;BME280;593;53.184;8.216;2023-12-28T10:38:02;100330.06;;;11.32;100.00
1207;BME280;593;53.184;8.216;2023-12-28T10:40:28;100329.03;;;11.28;100.00
1207;BME280;593;53.184;8.216;2023-12-28T10:43:02;100334.09;;;11.35;100.00
1207;BME280;593;53.184;8.216;2023-12-28T10:45:29;100346.63;;;11.36;100.00
1207;BME280;593;53.184;8.216;2023-12-28T10:48:12;100341.50;;;11.34;100.00
1207;BME280;593;53.184;8.216;2023-12-28T10:50:49;100344.41;;;11.38;100.00
1207;BME280;593;53.184;8.216;2023-12-28T10:56:36;100354.22;;;11.39;100.00
1207;BME280;593;53.184;8.216;2023-12-28T10:59:26;100349.78;;;11.43;100.00
1207;BME280;593;53.184;8.216;2023-12-28T11:01:55;100350.91;;;11.42;100.00
1207;BME280;593;53.184;8.216;2023-12-28T11:07:07;100338.06;;;11.42;100.00
1207;BME280;593;53.184;8.216;2023-12-28T11:09:34;100337.56;;;11.40;100.00
1207;BME280;593;53.184;8.216;2023-12-28T11:12:00;100329.53;;;11.49;100.00
1207;BME280;593;53.184;8.216;2023-12-28T11:14:27;100338.53;;;11.49;100.00
1207;BME280;593;53.184;8.216;2023-12-28T11:16:53;100325.41;;;11.51;100.00
1207;BME280;593;53.184;8.216;2023-12-28T11:19:20;100336.31;;;11.51;100.00
1207;BME280;593;53.184;8.216;2023-12-28T11:21:48;100342.56;;;11.52;100.00
1207;BME280;593;53.184;8.216;2023-12-28T11:24:14;100329.47;;;11.54;100.00
1207;BME280;593;53.184;8.216;2023-12-28T11:26:40;100323.72;;;11.55;100.00
1207;BME280;593;53.184;8.216;2023-12-28T11:29:05;100320.72;;;11.57;100.00
1207;BME280;593;53.184;8.216;2023-12-28T11:31:35;100339.47;;;11.58;100.00
1207;BME280;593;53.184;8.216;2023-12-28T11:34:04;100314.03;;;11.49;100.00
1207;BME280;593;53.184;8.216;2023-12-28T11:36:42;100319.88;;;11.56;100.00
1207;BME280;593;53.184;8.216;2023-12-28T11:39:10;100322.03;;;11.59;100.00
1207;BME280;593;53.184;8.216;2023-12-28T11:41:36;100319.00;;;11.61;100.00
1207;BME280;593;53.184;8.216;2023-12-28T11:44:02;100331.53;;;11.62;100.00
1207;BME280;593;53.184;8.216;2023-12-28T11:46:30;100308.50;;;11.54;100.00
1207;BME280;593;53.184;8.216;2023-12-28T11:49:05;100317.66;;;11.58;100.00
1207;BME280;593;53.184;8.216;2023-12-28T11:51:33;100330.72;;;11.62;100.00
1207;BME280;593;53.184;8.216;2023-12-28T11:53:59;100313.03;;;11.59;100.00
1207;BME280;593;53.184;8.216;2023-12-28T11:56:25;100323.81;;;11.69;100.00
1207;BME280;593;53.184;8.216;2023-12-28T11:58:51;100324.63;;;11.70;100.00
1207;BME280;593;53.184;8.216;2023-12-28T12:01:16;100332.78;;;11.70;100.00
1207;BME280;593;53.184;8.216;2023-12-28T12:03:41;100326.00;;;11.67;100.00
1207;BME280;593;53.184;8.216;2023-12-28T12:06:07;100333.88;;;11.69;100.00
1207;BME280;593;53.184;8.216;2023-12-28T12:08:33;100308.31;;;11.65;100.00
1207;BME280;593;53.184;8.216;2023-12-28T12:11:02;100331.97;;;11.69;100.00
1207;BME280;593;53.184;8.216;2023-12-28T12:13:30;100325.13;;;11.72;100.00
1207;BME280;593;53.184;8.216;2023-12-28T12:15:55;100322.41;;;11.72;100.00
1207;BME280;593;53.184;8.216;2023-12-28T12:18:22;100316.44;;;11.70;100.00
1207;BME280;593;53.184;8.216;2023-12-28T12:20:47;100321.28;;;11.73;100.00
1207;BME280;593;53.184;8.216;2023-12-28T12:23:13;100313.72;;;11.70;100.00
1207;BME280;593;53.184;8.216;2023-12-28T12:25:40;100311.00;;;11.70;100.00
1207;BME280;593;53.184;8.216;2023-12-28T12:28:06;100314.00;;;11.68;100.00
1207;BME280;593;53.184;8.216;2023-12-28T12:30:32;100324.31;;;11.71;100.00
1207;BME280;593;53.184;8.216;2023-12-28T12:32:57;100327.84;;;11.72;100.00
1207;BME280;593;53.184;8.216;2023-12-28T12:35:22;100322.41;;;11.72;100.00
1207;BME280;593;53.184;8.216;2023-12-28T12:37:48;100326.72;;;11.73;100.00
1207;BME280;593;53.184;8.216;2023-12-28T12:40:16;100325.63;;;11.74;100.00
1207;BME280;593;53.184;8.216;2023-12-28T12:42:51;100319.59;;;11.77;100.00
1207;BME280;593;53.184;8.216;2023-12-28T12:45:18;100312.00;;;11.74;100.00
1207;BME280;593;53.184;8.216;2023-12-28T12:47:43;100316.63;;;11.73;100.00
1207;BME280;593;53.184;8.216;2023-12-28T12:50:09;100308.97;;;11.75;100.00
1207;BME280;593;53.184;8.216;2023-12-28T12:52:36;100312.50;;;11.76;100.00
1207;BME280;593;53.184;8.216;2023-12-28T12:55:01;100303.25;;;11.77;100.00
1207;BME280;593;53.184;8.216;2023-12-28T12:57:27;100313.31;;;11.76;100.00
1207;BME280;593;53.184;8.216;2023-12-28T12:59:53;100314.13;;;11.77;100.00
1207;BME280;593;53.184;8.216;2023-12-28T13:02:18;100331.00;;;11.79;100.00
1207;BME280;593;53.184;8.216;2023-12-28T13:04:44;100310.00;;;11.79;100.00
1207;BME280;593;53.184;8.216;2023-12-28T13:07:09;100329.44;;;11.73;100.00
1207;BME280;593;53.184;8.216;2023-12-28T13:09:34;100328.84;;;11.76;100.00
1207;BME280;593;53.184;8.216;2023-12-28T13:12:01;100329.66;;;11.76;100.00
1207;BME280;593;53.184;8.216;2023-12-28T13:14:28;100331.06;;;11.74;100.00
1207;BME280;593;53.184;8.216;2023-12-28T13:16:55;100324.72;;;11.78;100.00
1207;BME280;593;53.184;8.216;2023-12-28T13:19:20;100340.25;;;11.78;100.00